Time;durP1;ratioP1;P1;durP2;ratioP2;P2;SDS_P1;SDS_P2;PMS_P1;PMS_P2;Temp;Humidity;BMP_temperature;BMP_pressure;BME280_temperature;BME280_humidity;BME280_pressure;Samples;Min_cycle;Max_cycle;Signal;HPM_P1;HPM_P2
2022/10/12 00:02:14;;;;;;;7.32;1.38;;;35.90;37.50;;;;;;5099377;28;20089;-64
2022/10/12 00:04:40;;;;;;;8.57;1.20;;;35.90;37.50;;;;;;5102591;28;20139;-63
2022/10/12 00:07:06;;;;;;;5.85;1.27;;;35.80;37.10;;;;;;5099184;28;20072;-63
2022/10/12 00:09:33;;;;;;;5.68;1.33;;;35.70;37.60;;;;;;5096740;28;20075;-64
2022/10/12 00:11:59;;;;;;;6.40;1.13;;;35.70;37.60;;;;;;5099018;28;20114;-65
2022/10/12 00:14:25;;;;;;;6.07;1.30;;;35.60;37.80;;;;;;5097166;28;20088;-64
2022/10/12 00:16:52;;;;;;;4.45;1.30;;;35.60;37.80;;;;;;5096910;28;20064;-62
2022/10/12 00:19:18;;;;;;;4.22;1.42;;;35.50;38.10;;;;;;5100716;28;20119;-65
2022/10/12 00:21:45;;;;;;;10.70;1.33;;;35.40;37.90;;;;;;5093483;28;20076;-65
2022/10/12 00:24:11;;;;;;;6.65;1.55;;;35.20;38.50;;;;;;5101063;28;20514;-63
2022/10/12 00:26:37;;;;;;;5.25;1.20;;;35.10;38.60;;;;;;5099727;28;20154;-62
2022/10/12 00:29:04;;;;;;;5.05;1.38;;;35.00;38.40;;;;;;5101461;28;20072;-64
2022/10/12 00:31:31;;;;;;;9.18;1.50;;;34.90;38.90;;;;;;5085228;28;20084;-65
2022/10/12 00:34:00;;;;;;;11.35;1.52;;;34.80;38.80;;;;;;5088891;28;20108;-64
2022/10/12 00:36:31;;;;;;;33.88;2.97;;;34.70;39.10;;;;;;5094324;28;20537;-64
2022/10/12 00:38:58;;;;;;;20.92;4.07;;;34.60;39.50;;;;;;5090291;28;20130;-63
2022/10/12 00:41:29;;;;;;;23.40;2.35;;;34.50;39.40;;;;;;5088436;28;20093;-65
2022/10/12 00:43:55;;;;;;;38.10;3.42;;;34.40;40.50;;;;;;5089554;28;20073;-63
2022/10/12 00:46:43;;;;;;;42.22;3.95;;;34.30;41.90;;;;;;5093663;28;20076;-64
2022/10/12 00:49:17;;;;;;;24.40;3.33;;;34.20;42.40;;;;;;5089317;28;20073;-65
2022/10/12 00:51:54;;;;;;;34.92;3.50;;;34.10;42.60;;;;;;5089829;28;20080;-65
2022/10/12 00:54:25;;;;;;;30.35;2.95;;;34.10;70.10;;;;;;5089772;28;20195;-63
2022/10/12 00:56:54;;;;;;;39.55;6.25;;;34.00;43.00;;;;;;5090068;28;20028;-65
2022/10/12 00:59:27;;;;;;;44.33;5.75;;;33.90;43.00;;;;;;5094372;28;20152;-64
2022/10/12 01:01:55;;;;;;;33.40;3.72;;;33.90;43.30;;;;;;5088850;28;20175;-66
2022/10/12 01:04:22;;;;;;;28.38;3.33;;;33.80;43.60;;;;;;5094001;28;20077;-64
2022/10/12 01:06:49;;;;;;;23.20;2.85;;;33.70;44.20;;;;;;5090075;28;20151;-64
2022/10/12 01:09:16;;;;;;;31.70;3.15;;;33.70;43.80;;;;;;5089366;28;20089;-64
2022/10/12 01:11:42;;;;;;;30.85;2.78;;;33.60;44.10;;;;;;5088899;28;20156;-63
2022/10/12 01:14:09;;;;;;;31.67;3.20;;;33.60;44.40;;;;;;5087765;28;20107;-62
2022/10/12 01:16:35;;;;;;;26.83;3.40;;;33.50;44.60;;;;;;5089080;28;20130;-64
2022/10/12 01:19:38;;;;;;;27.60;2.58;;;33.40;44.80;;;;;;5090696;28;20095;-63
2022/10/12 01:22:10;;;;;;;23.83;3.03;;;33.30;45.00;;;;;;5087707;28;20072;-65
2022/10/12 01:24:43;;;;;;;22.67;2.80;;;33.30;45.30;;;;;;5093998;28;20422;-64
2022/10/12 01:27:35;;;;;;;21.13;2.75;;;33.20;45.50;;;;;;5089187;28;20065;-65
2022/10/12 01:30:07;;;;;;;23.25;3.08;;;33.20;45.60;;;;;;5085700;28;20521;-63
2022/10/12 01:32:58;;;;;;;29.33;2.92;;;33.00;80.10;;;;;;5086037;28;20185;-63
2022/10/12 01:35:52;;;;;;;19.63;2.95;;;33.20;46.00;;;;;;5087826;28;20040;-64
2022/10/12 01:38:41;;;;;;;18.95;2.70;;;32.90;45.90;;;;;;5090324;28;20473;-65
2022/10/12 01:41:18;;;;;;;14.55;2.20;;;33.00;45.90;;;;;;5092071;28;20097;-64
2022/10/12 01:43:45;;;;;;;17.83;2.40;;;33.00;46.10;;;;;;5089586;28;20078;-65
2022/10/12 01:46:20;;;;;;;25.52;2.85;;;32.90;46.30;;;;;;5091227;28;20494;-68
2022/10/12 01:48:50;;;;;;;27.48;3.80;;;32.90;46.50;;;;;;5088098;28;20096;-65
2022/10/12 01:51:39;;;;;;;32.38;4.25;;;32.90;46.90;;;;;;5092495;28;20076;-65
2022/10/12 01:54:35;;;;;;;32.90;4.20;;;32.80;47.40;;;;;;5089170;28;20187;-65
2022/10/12 01:57:46;;;;;;;23.50;3.83;;;32.80;47.80;;;;;;5088647;28;20125;-65
2022/10/12 02:00:17;;;;;;;25.95;3.88;;;32.70;48.40;;;;;;5073879;28;20087;-63
2022/10/12 02:03:09;;;;;;;16.90;4.75;;;32.50;48.60;;;;;;5088357;28;20088;-64
2022/10/12 02:05:38;;;;;;;19.15;4.55;;;32.50;48.70;;;;;;5091479;28;20103;-62
2022/10/12 02:08:25;;;;;;;23.55;4.57;;;32.50;48.40;;;;;;5091449;28;20649;-63
2022/10/12 02:11:18;;;;;;;23.75;5.07;;;32.40;48.50;;;;;;5089982;28;20095;-65
2022/10/12 02:13:53;;;;;;;22.17;5.35;;;32.40;48.70;;;;;;5087626;28;20112;-64
2022/10/12 02:16:27;;;;;;;27.42;5.55;;;32.40;48.70;;;;;;5091110;28;20068;-63
2022/10/12 02:18:56;;;;;;;20.10;6.03;;;32.30;48.90;;;;;;5089657;28;20072;-64
2022/10/12 02:21:30;;;;;;;21.40;5.45;;;32.30;49.10;;;;;;5088907;28;20552;-64
2022/10/12 02:24:01;;;;;;;13.80;5.25;;;32.20;49.30;;;;;;5087290;28;20125;-64
2022/10/12 02:26:29;;;;;;;19.35;4.88;;;32.20;49.40;;;;;;5089398;28;20445;-64
2022/10/12 02:28:57;;;;;;;28.00;5.68;;;32.20;49.60;;;;;;5089977;28;20092;-63
2022/10/12 02:31:50;;;;;;;24.80;5.82;;;32.10;49.60;;;;;;5087359;28;20541;-65
2022/10/12 02:34:24;;;;;;;36.55;7.32;;;32.10;49.80;;;;;;5087616;28;20089;-64
2022/10/12 02:37:13;;;;;;;30.38;8.43;;;32.00;49.70;;;;;;5093703;28;20095;-63
2022/10/12 02:39:48;;;;;;;23.60;9.43;;;32.00;49.80;;;;;;5093648;28;20156;-62
2022/10/12 02:42:19;;;;;;;29.42;10.13;;;31.90;50.00;;;;;;5093799;28;20112;-64
2022/10/12 02:44:46;;;;;;;23.27;9.60;;;31.90;49.90;;;;;;5092212;28;20134;-65
2022/10/12 02:47:15;;;;;;;35.08;9.57;;;31.80;50.00;;;;;;5092678;28;20084;-64
2022/10/12 02:49:46;;;;;;;28.30;8.32;;;31.80;50.00;;;;;;5093429;28;20113;-62
2022/10/12 02:52:12;;;;;;;40.15;9.25;;;31.80;50.00;;;;;;5096077;28;20209;-63
2022/10/12 02:54:39;;;;;;;37.65;6.60;;;31.70;50.10;;;;;;5092312;28;20068;-64
2022/10/12 02:57:06;;;;;;;22.35;5.57;;;31.70;49.90;;;;;;5092566;28;20084;-64
2022/10/12 02:59:32;;;;;;;31.10;4.55;;;31.70;50.20;;;;;;5092278;28;20174;-66
2022/10/12 03:01:59;;;;;;;19.65;4.35;;;31.60;50.40;;;;;;5092032;28;20129;-63
2022/10/12 03:04:25;;;;;;;24.48;3.90;;;31.60;50.70;;;;;;5093569;28;20084;-64
2022/10/12 03:06:51;;;;;;;38.10;4.53;;;31.50;50.70;;;;;;5093083;28;20093;-64
2022/10/12 03:09:18;;;;;;;26.90;4.50;;;31.50;51.00;;;;;;5091799;28;20080;-64
2022/10/12 03:11:44;;;;;;;26.77;3.65;;;31.40;51.10;;;;;;5092198;28;20492;-65
2022/10/12 03:14:13;;;;;;;24.30;3.63;;;31.40;51.10;;;;;;5091574;28;20097;-64
2022/10/12 03:16:40;;;;;;;18.00;2.65;;;31.40;51.30;;;;;;5092240;28;20073;-66
2022/10/12 03:19:06;;;;;;;24.42;2.92;;;31.30;51.20;;;;;;5091616;28;20122;-64
2022/10/12 03:21:33;;;;;;;22.75;3.20;;;31.30;51.30;;;;;;5092930;28;20069;-64
2022/10/12 03:23:59;;;;;;;21.75;2.70;;;31.20;51.30;;;;;;5091825;28;20079;-64
2022/10/12 03:26:26;;;;;;;20.98;2.97;;;31.10;51.50;;;;;;5091555;28;20304;-64
2022/10/12 03:28:52;;;;;;;27.17;3.03;;;31.10;51.40;;;;;;5093389;28;20069;-65
2022/10/12 03:31:18;;;;;;;19.23;2.47;;;31.10;51.60;;;;;;5091266;28;20147;-65
2022/10/12 03:33:45;;;;;;;16.88;2.35;;;31.00;51.50;;;;;;5087689;28;20100;-65
2022/10/12 03:36:11;;;;;;;20.88;2.35;;;31.00;51.40;;;;;;5091287;28;20531;-64
2022/10/12 03:38:37;;;;;;;14.68;2.60;;;31.00;51.50;;;;;;5091275;28;20073;-65
2022/10/12 03:41:04;;;;;;;16.98;2.50;;;30.90;51.50;;;;;;5089658;28;20175;-65
2022/10/12 03:43:30;;;;;;;11.90;2.42;;;30.90;51.60;;;;;;5092246;28;20072;-65
2022/10/12 03:45:57;;;;;;;9.48;2.13;;;30.80;51.40;;;;;;5091606;28;20085;-65
2022/10/12 03:48:23;;;;;;;12.27;2.08;;;30.80;51.50;;;;;;5091944;28;20088;-64
2022/10/12 03:50:51;;;;;;;13.15;2.30;;;30.80;51.50;;;;;;5090484;28;20081;-66
2022/10/12 03:53:18;;;;;;;17.95;2.53;;;30.80;51.50;;;;;;5091142;28;20107;-65
2022/10/12 03:55:45;;;;;;;11.27;2.80;;;30.70;51.50;;;;;;5090212;28;20069;-64
2022/10/12 03:58:12;;;;;;;11.45;2.75;;;30.70;51.70;;;;;;5091405;28;20073;-66
2022/10/12 04:00:38;;;;;;;18.98;3.00;;;30.70;52.40;;;;;;5092091;28;20088;-64
2022/10/12 04:03:05;;;;;;;13.73;2.53;;;30.70;51.70;;;;;;5090358;28;20126;-65
2022/10/12 04:05:32;;;;;;;18.85;3.15;;;30.60;52.40;;;;;;5092843;28;20250;-65
2022/10/12 04:07:58;;;;;;;13.93;3.35;;;30.60;51.90;;;;;;5094189;28;20080;-65
2022/10/12 04:10:25;;;;;;;23.85;3.90;;;30.50;51.80;;;;;;5090247;28;20092;-65
2022/10/12 04:12:51;;;;;;;19.90;3.30;;;30.50;52.40;;;;;;5090520;28;20105;-65
2022/10/12 04:15:18;;;;;;;16.50;3.97;;;30.40;52.10;;;;;;5090505;28;20549;-65
2022/10/12 04:17:44;;;;;;;21.90;4.53;;;30.40;52.60;;;;;;5089184;28;20073;-66
2022/10/12 04:20:12;;;;;;;14.13;3.33;;;30.40;52.60;;;;;;5088949;28;20125;-66
2022/10/12 04:22:38;;;;;;;12.95;3.30;;;30.40;53.10;;;;;;5091456;28;20106;-65
2022/10/12 04:25:05;;;;;;;17.38;3.50;;;30.30;52.90;;;;;;5090265;28;20069;-66
2022/10/12 04:27:32;;;;;;;17.63;3.40;;;30.30;52.50;;;;;;5090584;28;20072;-66
2022/10/12 04:29:58;;;;;;;15.32;3.30;;;30.30;53.10;;;;;;5092628;28;20080;-67
2022/10/12 04:32:25;;;;;;;18.83;3.33;;;30.30;52.80;;;;;;5090327;28;20557;-68
2022/10/12 04:34:51;;;;;;;23.63;3.50;;;30.20;52.90;;;;;;5088324;28;20522;-72
2022/10/12 04:37:17;;;;;;;22.17;3.75;;;30.20;53.10;;;;;;5088693;28;20075;-66
2022/10/12 04:39:44;;;;;;;17.77;2.88;;;30.20;53.70;;;;;;5089682;28;20073;-62
2022/10/12 04:42:22;;;;;;;12.77;3.35;;;30.10;52.50;;;;;;5090851;28;20080;-64
2022/10/12 04:44:49;;;;;;;16.17;2.92;;;30.10;52.60;;;;;;5098371;28;20068;-64
2022/10/12 04:47:15;;;;;;;13.10;2.92;;;30.00;53.00;;;;;;5089235;28;20081;-62
2022/10/12 04:49:41;;;;;;;20.60;3.13;;;30.00;53.10;;;;;;5087837;28;20089;-66
2022/10/12 04:52:08;;;;;;;14.18;3.33;;;29.90;53.10;;;;;;5090386;28;20075;-64
2022/10/12 04:54:34;;;;;;;7.03;2.58;;;29.90;53.70;;;;;;5089780;28;20085;-65
2022/10/12 04:57:01;;;;;;;13.40;2.78;;;29.80;53.90;;;;;;5092858;28;20064;-66
2022/10/12 04:59:27;;;;;;;12.20;2.50;;;29.80;53.70;;;;;;5088180;28;20062;-66
2022/10/12 05:01:54;;;;;;;14.50;2.38;;;29.80;54.20;;;;;;5089066;28;20157;-64
2022/10/12 05:04:20;;;;;;;10.68;2.80;;;29.70;54.30;;;;;;5090208;28;20076;-63
2022/10/12 05:06:47;;;;;;;14.15;3.40;;;29.70;54.40;;;;;;5090115;28;20126;-65
2022/10/12 05:09:13;;;;;;;18.65;3.58;;;29.70;54.60;;;;;;5088055;28;20057;-65
2022/10/12 05:11:40;;;;;;;31.65;3.28;;;29.60;54.40;;;;;;5089830;28;20433;-65
2022/10/12 05:14:07;;;;;;;10.38;3.30;;;29.60;54.20;;;;;;5089206;28;20108;-65
2022/10/12 05:16:34;;;;;;;21.67;4.15;;;29.60;54.10;;;;;;5088753;28;20114;-65
2022/10/12 05:19:00;;;;;;;15.05;3.30;;;29.60;54.10;;;;;;5089026;28;20542;-64
2022/10/12 05:21:26;;;;;;;23.48;4.88;;;29.60;54.10;;;;;;5093123;28;20486;-65
2022/10/12 05:23:53;;;;;;;34.38;5.25;;;29.60;53.80;;;;;;5089174;28;20076;-64
2022/10/12 05:26:19;;;;;;;20.95;5.20;;;29.60;53.90;;;;;;5090022;28;20108;-63
2022/10/12 05:28:46;;;;;;;11.55;4.50;;;29.50;54.00;;;;;;5089407;28;20121;-65
2022/10/12 05:31:12;;;;;;;21.05;5.53;;;29.50;54.20;;;;;;5088386;28;20099;-64
2022/10/12 05:33:38;;;;;;;12.50;4.80;;;29.50;53.90;;;;;;5089344;28;20906;-64
2022/10/12 05:36:05;;;;;;;15.68;5.28;;;29.50;53.90;;;;;;5086248;28;20075;-64
2022/10/12 05:38:32;;;;;;;34.80;12.82;;;29.40;53.90;;;;;;5088260;28;20092;-65
2022/10/12 05:40:58;;;;;;;20.80;6.68;;;29.40;54.20;;;;;;5089064;28;20073;-64
2022/10/12 05:43:24;;;;;;;15.60;6.25;;;29.30;54.80;;;;;;5089005;28;20100;-65
2022/10/12 05:45:51;;;;;;;20.30;6.82;;;29.30;54.80;;;;;;5087832;28;20069;-65
2022/10/12 05:48:17;;;;;;;13.63;5.47;;;29.30;55.10;;;;;;5088584;28;20614;-65
2022/10/12 05:50:44;;;;;;;14.05;5.40;;;29.30;55.70;;;;;;5089037;28;20465;-63
2022/10/12 05:53:10;;;;;;;13.55;6.03;;;29.30;55.50;;;;;;5088873;28;20145;-63
2022/10/12 05:55:36;;;;;;;17.25;5.95;;;29.20;55.20;;;;;;5089144;28;20099;-63
2022/10/12 05:58:03;;;;;;;17.15;6.32;;;29.20;55.60;;;;;;5088009;28;20068;-63
2022/10/12 06:00:29;;;;;;;17.48;6.40;;;29.10;55.60;;;;;;5088726;28;20081;-64
2022/10/12 06:02:56;;;;;;;14.10;6.43;;;29.10;56.10;;;;;;5091815;28;20092;-64
2022/10/12 06:05:22;;;;;;;14.80;6.60;;;29.10;56.10;;;;;;5088901;28;20118;-65
2022/10/12 06:07:48;;;;;;;13.30;6.10;;;29.00;56.00;;;;;;5089088;28;21486;-64
2022/10/12 06:10:15;;;;;;;16.00;6.55;;;29.00;56.00;;;;;;5087917;28;20120;-64
2022/10/12 06:12:42;;;;;;;15.60;6.25;;;29.00;55.80;;;;;;5087599;28;20157;-64
2022/10/12 06:15:09;;;;;;;18.10;6.28;;;28.90;56.00;;;;;;5088856;28;20525;-65
2022/10/12 06:17:35;;;;;;;12.25;7.00;;;28.90;56.10;;;;;;5093403;28;20072;-65
2022/10/12 06:20:01;;;;;;;19.38;7.13;;;28.90;56.20;;;;;;5087920;28;20159;-65
2022/10/12 06:22:28;;;;;;;13.55;6.28;;;28.90;55.90;;;;;;5089334;28;20080;-64
2022/10/12 06:24:54;;;;;;;16.98;6.75;;;28.80;56.40;;;;;;5088256;28;20159;-65
2022/10/12 06:27:21;;;;;;;19.40;6.18;;;28.80;56.30;;;;;;5087352;28;20537;-63
2022/10/12 06:29:47;;;;;;;18.48;5.97;;;28.80;56.60;;;;;;5087973;28;20085;-63
2022/10/12 06:32:13;;;;;;;17.15;5.75;;;28.70;56.00;;;;;;5087615;28;20085;-64
2022/10/12 06:34:40;;;;;;;26.90;6.18;;;28.80;56.20;;;;;;5089689;28;20187;-64
2022/10/12 06:37:06;;;;;;;10.93;5.60;;;28.70;56.20;;;;;;5086065;28;20069;-64
2022/10/12 06:39:32;;;;;;;13.27;5.20;;;28.70;55.60;;;;;;5089099;28;20167;-64
2022/10/12 06:41:59;;;;;;;17.42;5.88;;;28.70;55.80;;;;;;5087607;28;20532;-63
2022/10/12 06:44:25;;;;;;;16.80;6.13;;;28.70;55.60;;;;;;5087608;28;20436;-64
2022/10/12 06:46:52;;;;;;;15.40;5.20;;;28.70;55.40;;;;;;5089572;28;20084;-62
2022/10/12 06:49:18;;;;;;;10.98;5.18;;;28.80;55.40;;;;;;5088414;28;20082;-63
2022/10/12 06:51:45;;;;;;;13.82;5.13;;;28.70;55.10;;;;;;5088950;28;20077;-64
2022/10/12 06:54:11;;;;;;;11.20;4.90;;;28.80;55.30;;;;;;5089542;28;20473;-64
2022/10/12 06:56:38;;;;;;;13.77;5.18;;;28.80;55.10;;;;;;5088800;28;20097;-62
2022/10/12 06:59:05;;;;;;;9.70;4.57;;;28.80;55.00;;;;;;5088892;28;20072;-63
2022/10/12 07:01:31;;;;;;;11.85;5.07;;;28.80;55.10;;;;;;5087673;28;20642;-63
2022/10/12 07:03:58;;;;;;;10.93;4.43;;;28.70;55.20;;;;;;5087995;28;20084;-63
2022/10/12 07:06:24;;;;;;;12.40;4.32;;;28.70;55.50;;;;;;5088126;28;20102;-63
2022/10/12 07:08:53;;;;;;;11.50;4.88;;;28.70;55.10;;;;;;5088172;28;20088;-64
2022/10/12 07:11:20;;;;;;;11.57;4.40;;;28.70;55.50;;;;;;5088884;28;20110;-64
2022/10/12 07:13:46;;;;;;;11.73;4.63;;;28.70;55.20;;;;;;5089476;28;20109;-64
2022/10/12 07:16:13;;;;;;;10.73;5.18;;;28.60;55.40;;;;;;5088764;28;20069;-63
2022/10/12 07:18:40;;;;;;;14.27;4.82;;;28.70;55.40;;;;;;5086920;28;20602;-65
2022/10/12 07:21:06;;;;;;;10.05;4.53;;;28.70;55.20;;;;;;5088497;28;20083;-65
2022/10/12 07:23:33;;;;;;;11.00;4.15;;;28.70;55.40;;;;;;5090392;28;20557;-64
2022/10/12 07:26:00;;;;;;;10.30;4.85;;;28.70;55.10;;;;;;5091432;28;20084;-65
2022/10/12 07:28:27;;;;;;;12.80;4.60;;;28.70;55.10;;;;;;5090996;28;20183;-64
2022/10/12 07:30:53;;;;;;;13.13;5.00;;;28.70;55.30;;;;;;5090795;28;20543;-64
2022/10/12 07:33:20;;;;;;;16.50;5.40;;;28.70;55.40;;;;;;5092975;28;20088;-63
2022/10/12 07:35:55;;;;;;;13.65;4.95;;;28.70;55.40;;;;;;5095129;28;20076;-63
2022/10/12 07:38:22;;;;;;;12.57;4.68;;;28.70;55.70;;;;;;5088070;28;20088;-64
2022/10/12 07:40:48;;;;;;;18.67;5.68;;;28.60;55.70;;;;;;5090935;28;20117;-63
2022/10/12 07:43:14;;;;;;;17.92;5.40;;;28.60;56.00;;;;;;5090791;28;20148;-65
2022/10/12 07:45:41;;;;;;;10.68;4.30;;;28.50;56.20;;;;;;5091276;28;20092;-63
2022/10/12 07:48:07;;;;;;;12.70;4.63;;;28.50;56.40;;;;;;5091600;28;20075;-62
2022/10/12 07:50:34;;;;;;;13.07;4.60;;;28.50;56.90;;;;;;5088601;28;20080;-63
2022/10/12 07:53:00;;;;;;;15.00;5.30;;;28.40;57.10;;;;;;5090614;28;20093;-64
2022/10/12 07:55:26;;;;;;;10.95;5.00;;;28.40;57.00;;;;;;5095586;28;20064;-63
2022/10/12 07:57:53;;;;;;;13.43;5.18;;;28.30;57.70;;;;;;5090758;28;20406;-64
2022/10/12 08:00:21;;;;;;;11.20;5.20;;;28.30;57.40;;;;;;5090219;28;20427;-63
2022/10/12 08:02:47;;;;;;;10.40;4.95;;;28.20;57.70;;;;;;5090257;28;20096;-63
2022/10/12 08:05:13;;;;;;;19.10;5.18;;;28.30;57.50;;;;;;5090616;28;20083;-64
2022/10/12 08:07:40;;;;;;;17.70;5.43;;;28.30;57.80;;;;;;5090071;28;20091;-62
2022/10/12 08:10:06;;;;;;;13.45;5.35;;;28.30;57.70;;;;;;5099078;28;20442;-62
2022/10/12 08:12:33;;;;;;;11.20;4.80;;;28.20;58.20;;;;;;5090209;28;20573;-64
2022/10/12 08:14:59;;;;;;;12.40;4.75;;;28.20;57.60;;;;;;5091623;28;20518;-64
2022/10/12 08:17:25;;;;;;;14.20;5.35;;;28.20;57.80;;;;;;5090500;28;20099;-64
2022/10/12 08:19:52;;;;;;;15.85;5.30;;;28.10;57.40;;;;;;5093574;28;20068;-64
2022/10/12 08:22:18;;;;;;;13.27;4.68;;;28.10;57.50;;;;;;5089881;28;20113;-63
2022/10/12 08:24:44;;;;;;;18.65;5.40;;;28.10;57.50;;;;;;5090347;28;20069;-63
2022/10/12 08:27:11;;;;;;;12.18;4.95;;;28.00;57.60;;;;;;5090339;28;20068;-64
2022/10/12 08:29:38;;;;;;;15.02;5.35;;;28.00;57.80;;;;;;5089919;28;20449;-64
2022/10/12 08:32:05;;;;;;;14.15;5.55;;;28.00;57.70;;;;;;5089174;28;20065;-63
2022/10/12 08:34:32;;;;;;;13.90;4.93;;;27.90;57.60;;;;;;5089962;28;20096;-63
2022/10/12 08:36:58;;;;;;;16.65;5.15;;;27.80;58.00;;;;;;5093766;28;20600;-62
2022/10/12 08:39:26;;;;;;;16.63;4.90;;;27.80;58.10;;;;;;5086282;28;20076;-63
2022/10/12 08:42:28;;;;;;;10.93;5.40;;;27.90;58.30;;;;;;5089929;28;20102;-64
2022/10/12 08:44:57;;;;;;;12.57;5.30;;;27.90;58.70;;;;;;5090667;28;20064;-65
2022/10/12 08:47:40;;;;;;;19.17;6.88;;;27.80;59.10;;;;;;5089552;28;20076;-61
2022/10/12 08:50:35;;;;;;;19.27;5.85;;;27.80;59.20;;;;;;5090658;28;20541;-64
2022/10/12 08:53:10;;;;;;;21.67;5.65;;;27.70;59.10;;;;;;5081336;28;20584;-65
2022/10/12 08:55:43;;;;;;;17.83;5.63;;;27.70;59.20;;;;;;5092818;28;20080;-64
2022/10/12 08:58:30;;;;;;;17.48;5.13;;;27.70;59.30;;;;;;5090331;28;20096;-62
2022/10/12 09:01:12;;;;;;;15.25;5.00;;;27.60;59.70;;;;;;5088744;28;20553;-64
2022/10/12 09:04:11;;;;;;;11.40;5.68;;;27.60;59.80;;;;;;5088762;28;20072;-64
2022/10/12 09:07:18;;;;;;;13.70;5.00;;;27.50;59.80;;;;;;5088790;28;20107;-65
2022/10/12 09:10:06;;;;;;;11.05;5.38;;;27.50;60.10;;;;;;5026867;28;20105;-64
2022/10/12 09:12:41;;;;;;;14.82;4.90;;;27.40;60.20;;;;;;5028100;28;20128;-64
2022/10/12 09:15:34;;;;;;;10.60;4.85;;;27.40;60.50;;;;;;5027613;28;20090;-64
2022/10/12 09:18:05;;;;;;;14.30;5.35;;;27.30;60.80;;;;;;5027372;28;20128;-64
2022/10/12 09:20:44;;;;;;;18.02;5.60;;;27.30;60.80;;;;;;5035517;28;20113;-64
2022/10/12 09:23:26;;;;;;;13.32;5.97;;;27.30;60.80;;;;;;5025578;28;20088;-64
2022/10/12 09:26:17;;;;;;;12.50;5.38;;;27.20;60.30;;;;;;5031815;28;20606;-65
2022/10/12 09:28:51;;;;;;;10.70;5.63;;;27.10;60.70;;;;;;5027837;28;20085;-63
2022/10/12 09:31:23;;;;;;;18.50;5.85;;;27.10;61.40;;;;;;5029752;28;20081;-64
2022/10/12 09:33:58;;;;;;;10.40;5.40;;;27.00;60.80;;;;;;5028957;28;20193;-64
2022/10/12 09:36:27;;;;;;;15.85;4.93;;;27.10;61.50;;;;;;5030770;28;20426;-64
2022/10/12 09:38:55;;;;;;;16.02;5.60;;;27.00;60.90;;;;;;5025755;28;20074;-64
2022/10/12 09:41:48;;;;;;;13.70;5.80;;;27.00;61.80;;;;;;5010585;28;20478;-64
2022/10/12 09:44:23;;;;;;;18.25;4.78;;;27.00;61.40;;;;;;5029476;28;20220;-64
2022/10/12 09:46:58;;;;;;;27.85;5.75;;;26.90;62.30;;;;;;5076315;28;20171;-63
2022/10/12 09:49:45;;;;;;;17.17;5.85;;;26.90;61.60;;;;;;5087650;28;20079;-64
2022/10/12 09:52:12;;;;;;;;;;;26.80;61.50;;;;;;5088289;28;20103;-64
2022/10/12 09:54:47;;;;;;;21.95;6.10;;;26.80;60.80;;;;;;5088041;28;19972;-62
2022/10/12 09:57:29;;;;;;;17.90;6.25;;;26.80;61.00;;;;;;5089775;28;20096;-64
2022/10/12 09:59:56;;;;;;;13.73;5.50;;;26.80;61.70;;;;;;5087825;28;20096;-64
2022/10/12 10:02:24;;;;;;;15.90;6.07;;;26.80;61.60;;;;;;5089752;28;20079;-63
2022/10/12 10:04:52;;;;;;;13.15;5.78;;;26.80;61.80;;;;;;5088631;28;20069;-64
2022/10/12 10:07:23;;;;;;;13.10;5.72;;;26.70;62.10;;;;;;5089445;28;20103;-63
2022/10/12 10:10:11;;;;;;;14.88;6.55;;;26.70;63.00;;;;;;5087821;28;20075;-63
2022/10/12 10:12:50;;;;;;;12.07;5.13;;;26.60;63.30;;;;;;5086667;28;20115;-63
2022/10/12 10:15:21;;;;;;;16.17;6.13;;;26.50;63.40;;;;;;5088007;28;20122;-63
2022/10/12 10:17:52;;;;;;;17.90;5.82;;;26.50;63.60;;;;;;5087244;28;20100;-63
2022/10/12 10:20:27;;;;;;;21.58;6.10;;;26.50;63.20;;;;;;5088634;28;20104;-64
2022/10/12 10:22:54;;;;;;;17.80;5.80;;;26.50;63.40;;;;;;5087135;28;20068;-63
2022/10/12 10:25:23;;;;;;;15.73;6.13;;;26.50;63.40;;;;;;5088357;28;20557;-64
2022/10/12 10:28:10;;;;;;;15.90;5.90;;;26.40;63.10;;;;;;5087472;28;20175;-62
2022/10/12 10:30:36;;;;;;;12.60;5.38;;;26.40;63.20;;;;;;5092171;28;20471;-64
2022/10/12 10:33:17;;;;;;;19.95;6.22;;;26.30;63.70;;;;;;5088198;28;20096;-64
2022/10/12 10:36:04;;;;;;;14.18;5.82;;;26.30;64.10;;;;;;5086620;28;20122;-64
2022/10/12 10:38:32;;;;;;;17.67;6.32;;;26.30;64.40;;;;;;5087010;28;20540;-63
2022/10/12 10:41:04;;;;;;;18.88;6.07;;;26.30;64.30;;;;;;5084969;28;20476;-63
2022/10/12 10:43:31;;;;;;;15.80;6.22;;;26.20;64.10;;;;;;5092040;28;20793;-64
2022/10/12 10:46:03;;;;;;;16.90;5.63;;;26.20;64.40;;;;;;5086759;28;20122;-64
2022/10/12 10:48:39;;;;;;;17.80;6.10;;;26.20;64.50;;;;;;5087674;28;20638;-64
2022/10/12 10:51:06;;;;;;;17.13;6.47;;;26.10;64.70;;;;;;5087854;28;20069;-65
2022/10/12 10:53:44;;;;;;;14.80;6.05;;;26.10;65.00;;;;;;5086689;28;20089;-64
2022/10/12 10:56:25;;;;;;;17.80;6.10;;;26.10;65.20;;;;;;5091426;28;20070;-63
2022/10/12 10:58:54;;;;;;;14.05;5.47;;;26.00;65.30;;;;;;5099622;28;20097;-65
2022/10/12 11:01:31;;;;;;;18.42;6.47;;;26.00;65.40;;;;;;5090903;28;20104;-64
2022/10/12 11:04:08;;;;;;;15.52;6.68;;;26.00;65.50;;;;;;5090683;28;20164;-64
2022/10/12 11:06:49;;;;;;;13.80;5.50;;;26.00;65.80;;;;;;5090575;28;20092;-63
2022/10/12 11:09:43;;;;;;;13.13;5.78;;;26.00;66.10;;;;;;5091471;28;20134;-64
2022/10/12 11:12:16;;;;;;;18.15;6.70;;;25.90;66.30;;;;;;5088701;28;20569;-63
2022/10/12 11:14:46;;;;;;;14.40;5.90;;;25.90;66.10;;;;;;5091238;28;20093;-65
2022/10/12 11:17:26;;;;;;;19.55;6.45;;;25.90;66.60;;;;;;5092328;28;20060;-63
2022/10/12 11:20:15;;;;;;;17.52;6.32;;;25.80;66.50;;;;;;5090662;28;20068;-64
2022/10/12 11:22:58;;;;;;;14.02;6.28;;;25.80;66.90;;;;;;5091021;28;20159;-65
2022/10/12 11:25:51;;;;;;;16.98;6.55;;;25.80;66.90;;;;;;5090886;28;20081;-64
2022/10/12 11:28:17;;;;;;;20.55;6.40;;;25.80;67.10;;;;;;5088788;28;20160;-65
2022/10/12 11:30:49;;;;;;;17.00;6.50;;;25.70;67.30;;;;;;5095188;28;20072;-64
2022/10/12 11:33:23;;;;;;;24.88;6.55;;;25.70;66.90;;;;;;5090720;28;20567;-64
2022/10/12 11:35:51;;;;;;;18.42;6.60;;;25.70;67.10;;;;;;5090108;28;20461;-64
2022/10/12 11:39:10;;;;;;;15.23;5.93;;;25.60;67.60;;;;;;5091233;28;20075;-64
2022/10/12 11:41:45;;;;;;;15.77;5.53;;;25.60;68.20;;;;;;5016972;28;20085;-64
2022/10/12 11:44:15;;;;;;;19.05;6.40;;;25.60;68.40;;;;;;5028637;28;20431;-65
2022/10/12 11:46:48;;;;;;;14.38;6.75;;;25.60;68.50;;;;;;5027875;28;20277;-64
2022/10/12 11:49:25;;;;;;;21.60;6.45;;;25.50;68.40;;;;;;5029667;28;20120;-65
2022/10/12 11:51:54;;;;;;;18.23;6.97;;;25.40;68.90;;;;;;5027891;28;20085;-63
2022/10/12 11:54:27;;;;;;;16.13;6.45;;;25.40;69.10;;;;;;5027599;28;20093;-65
2022/10/12 11:56:57;;;;;;;18.90;7.22;;;25.30;68.80;;;;;;5028279;28;20682;-64
2022/10/12 11:59:54;;;;;;;19.95;7.22;;;25.30;68.90;;;;;;5027697;28;20078;-65
2022/10/12 12:02:37;;;;;;;17.25;7.47;;;25.20;69.60;;;;;;5024729;28;20193;-65
2022/10/12 12:05:05;;;;;;;30.60;8.63;;;25.20;69.80;;;;;;5028531;28;20543;-65
2022/10/12 12:07:52;;;;;;;19.38;7.88;;;25.20;69.60;;;;;;5029199;28;20070;-65
2022/10/12 12:10:33;;;;;;;20.30;8.20;;;25.20;69.60;;;;;;5028005;28;20156;-65
2022/10/12 12:13:19;;;;;;;20.65;7.05;;;25.10;70.10;;;;;;5028087;28;20513;-64
2022/10/12 12:15:51;;;;;;;16.00;7.47;;;25.00;71.10;;;;;;5030949;28;20074;-64
2022/10/12 12:18:24;;;;;;;23.75;8.15;;;25.00;71.00;;;;;;5089766;28;20553;-64
2022/10/12 12:21:01;;;;;;;20.17;8.15;;;25.10;70.40;;;;;;5089868;28;20427;-63
2022/10/12 12:23:37;;;;;;;21.33;7.05;;;25.10;70.60;;;;;;5087911;28;20488;-64
2022/10/12 12:26:09;;;;;;;32.80;9.00;;;25.00;71.30;;;;;;5089603;28;20068;-63
2022/10/12 12:28:38;;;;;;;31.30;9.93;;;25.10;71.20;;;;;;5089079;28;20077;-63
2022/10/12 12:31:27;;;;;;;30.25;12.30;;;25.00;71.00;;;;;;5088329;28;20441;-65
2022/10/12 12:34:16;;;;;;;42.25;12.35;;;24.70;69.90;;;;;;5088890;28;20272;-64
2022/10/12 12:36:48;;;;;;;52.78;17.13;;;24.90;70.60;;;;;;5088003;28;20073;-64
2022/10/12 12:39:22;;;;;;;52.38;17.77;;;24.90;70.60;;;;;;5094059;28;20073;-64
2022/10/12 12:41:57;;;;;;;50.97;17.23;;;24.90;70.70;;;;;;5086729;28;20073;-64
2022/10/12 12:44:43;;;;;;;58.33;19.05;;;24.90;70.50;;;;;;5088578;28;20532;-62
2022/10/12 12:47:10;;;;;;;63.65;19.38;;;24.90;70.20;;;;;;5088488;28;20081;-64
2022/10/12 12:49:59;;;;;;;62.22;18.23;;;24.90;70.20;;;;;;5089783;28;20161;-64
2022/10/12 12:52:31;;;;;;;69.20;18.52;;;24.80;70.40;;;;;;5088777;28;20433;-62
2022/10/12 12:55:06;;;;;;;56.85;18.63;;;24.90;70.50;;;;;;5088103;28;20099;-65
2022/10/12 12:58:18;;;;;;;63.90;17.85;;;24.80;70.50;;;;;;5090226;28;20410;-65
2022/10/12 13:01:09;;;;;;;60.22;17.92;;;24.80;70.80;;;;;;5089211;28;20088;-64
2022/10/12 13:03:41;;;;;;;62.42;19.45;;;24.80;70.90;;;;;;5090528;28;20077;-65